Time,TemperatureF,DewpointF,PressureIn,WindDirection,WindDirectionDegrees,WindSpeedMPH,WindSpeedGustMPH,Humidity,HourlyPrecipIn,Conditions,Clouds,dailyrainin,SolarRadiationWatts/m^2,SoftwareType,DateUTC
2013-09-12 00:05:00,62.0,62.0,-100.00,SSW,211,2.0,5.0,99,0.00,,,0.40,0.000000,,2013-09-12 04:05:00,
2013-09-12 00:44:00,62.0,62.0,-100.00,West,275,3.0,7.0,99,0.02,,,0.41,0.000000,,2013-09-12 04:44:00,
2013-09-12 00:54:00,62.0,62.0,-100.00,West,275,3.0,7.0,99,0.02,,,0.41,0.000000,,2013-09-12 04:54:00,
2013-09-12 01:03:00,62.0,62.0,-100.00,West,275,3.0,7.0,99,0.02,,,0.41,0.000000,,2013-09-12 05:03:00,
2013-09-12 01:13:00,62.0,62.0,-100.00,West,275,3.0,7.0,99,0.02,,,0.41,0.000000,,2013-09-12 05:13:00,
2013-09-12 01:43:00,62.0,62.0,-100.00,West,264,6.0,11.0,99,0.00,,,0.41,0.000000,,2013-09-12 05:43:00,
2013-09-12 01:53:00,62.0,62.0,-100.00,West,264,6.0,11.0,99,0.00,,,0.41,0.000000,,2013-09-12 05:53:00,
2013-09-12 02:02:00,62.0,62.0,-100.00,West,264,6.0,11.0,99,0.00,,,0.41,0.000000,,2013-09-12 06:02:00,
2013-09-12 02:12:00,62.0,62.0,-100.00,West,264,6.0,11.0,99,0.00,,,0.41,0.000000,,2013-09-12 06:12:00,
2013-09-12 02:42:00,62.0,61.0,-100.00,WNW,286,9.0,16.0,96,0.00,,,0.41,0.000000,,2013-09-12 06:42:00,
2013-09-12 02:52:00,62.0,61.0,-100.00,WNW,286,9.0,16.0,96,0.00,,,0.41,0.000000,,2013-09-12 06:52:00,
2013-09-12 03:02:00,62.0,61.0,-100.00,WNW,286,9.0,16.0,96,0.00,,,0.41,0.000000,,2013-09-12 07:02:00,
2013-09-12 03:12:00,62.0,61.0,-100.00,WNW,286,9.0,16.0,96,0.00,,,0.41,0.000000,,2013-09-12 07:12:00,
2013-09-12 03:44:00,62.0,61.0,-100.00,WNW,293,6.0,14.0,95,0.00,,,0.41,0.000000,,2013-09-12 07:44:00,
2013-09-12 03:53:00,62.0,61.0,-100.00,WNW,293,6.0,14.0,95,0.00,,,0.41,0.000000,,2013-09-12 07:53:00,
2013-09-12 04:02:00,62.0,61.0,-100.00,WNW,293,6.0,14.0,95,0.00,,,0.41,0.000000,,2013-09-12 08:02:00,
2013-09-12 04:11:00,62.0,61.0,-100.00,WNW,293,6.0,14.0,95,0.00,,,0.41,0.000000,,2013-09-12 08:11:00,
2013-09-12 04:42:00,61.0,59.0,-100.00,WNW,291,7.0,13.0,94,0.00,,,0.41,0.000000,,2013-09-12 08:42:00,
2013-09-12 04:52:00,61.0,59.0,-100.00,WNW,291,7.0,13.0,94,0.00,,,0.41,0.000000,,2013-09-12 08:52:00,
2013-09-12 05:02:00,61.0,59.0,-100.00,WNW,291,7.0,13.0,94,0.00,,,0.41,0.000000,,2013-09-12 09:02:00,
2013-09-12 05:12:00,61.0,59.0,-100.00,WNW,291,7.0,13.0,94,0.00,,,0.41,0.000000,,2013-09-12 09:12:00,
2013-09-12 05:43:00,60.0,58.0,-100.00,NW,306,8.0,18.0,94,0.00,,,0.41,0.000000,,2013-09-12 09:43:00,
2013-09-12 05:53:00,60.0,58.0,-100.00,NW,306,8.0,18.0,94,0.00,,,0.41,0.000000,,2013-09-12 09:53:00,
2013-09-12 06:03:00,60.0,58.0,-100.00,NW,306,8.0,18.0,94,0.00,,,0.41,0.000000,,2013-09-12 10:03:00,
2013-09-12 06:12:00,60.0,58.0,-100.00,NW,306,8.0,18.0,94,0.00,,,0.41,0.000000,,2013-09-12 10:12:00,
2013-09-12 06:43:00,59.0,58.0,-100.00,NW,308,8.0,15.0,95,0.00,,,0.41,0.000000,,2013-09-12 10:43:00,
2013-09-12 06:53:00,59.0,58.0,-100.00,NW,308,8.0,15.0,95,0.00,,,0.41,0.000000,,2013-09-12 10:53:00,
2013-09-12 07:03:00,59.0,58.0,-100.00,NW,308,8.0,15.0,95,0.00,,,0.41,0.000000,,2013-09-12 11:03:00,
2013-09-12 07:11:00,59.0,58.0,-100.00,NW,308,8.0,15.0,95,0.00,,,0.41,0.000000,,2013-09-12 11:11:00,
2013-09-12 07:42:00,58.0,57.0,-100.00,NW,308,8.0,16.0,95,0.00,,,0.41,0.000000,,2013-09-12 11:42:00,
2013-09-12 07:52:00,58.0,57.0,-100.00,NW,308,8.0,16.0,95,0.00,,,0.41,0.000000,,2013-09-12 11:52:00,
2013-09-12 08:01:00,58.0,57.0,-100.00,NW,308,8.0,16.0,95,0.00,,,0.41,0.000000,,2013-09-12 12:01:00,
2013-09-12 08:12:00,58.0,57.0,-100.00,NW,308,8.0,16.0,95,0.00,,,0.41,0.000000,,2013-09-12 12:12:00,
2013-09-12 08:42:00,59.0,57.0,-100.00,WNW,290,8.0,16.0,92,0.00,,,0.41,52.000000,,2013-09-12 12:42:00,
2013-09-12 08:52:00,59.0,57.0,-100.00,WNW,290,8.0,16.0,92,0.00,,,0.41,52.000000,,2013-09-12 12:52:00,
2013-09-12 09:02:00,59.0,57.0,-100.00,WNW,290,8.0,16.0,92,0.00,,,0.41,52.000000,,2013-09-12 13:02:00,
2013-09-12 09:11:00,59.0,57.0,-100.00,WNW,290,8.0,16.0,92,0.00,,,0.41,52.000000,,2013-09-12 13:11:00,
2013-09-12 09:42:00,60.0,54.0,-100.00,WNW,300,11.0,18.0,82,0.00,,,0.41,203.000000,,2013-09-12 13:42:00,
2013-09-12 09:52:00,60.0,54.0,-100.00,WNW,300,11.0,18.0,82,0.00,,,0.41,203.000000,,2013-09-12 13:52:00,
2013-09-12 10:02:00,60.0,54.0,-100.00,WNW,300,11.0,18.0,82,0.00,,,0.41,203.000000,,2013-09-12 14:02:00,
2013-09-12 10:11:00,60.0,54.0,-100.00,WNW,300,11.0,18.0,82,0.00,,,0.41,203.000000,,2013-09-12 14:11:00,
2013-09-12 10:42:00,60.0,53.0,-100.00,WNW,303,12.0,25.0,77,0.00,,,0.41,419.000000,,2013-09-12 14:42:00,
2013-09-12 10:52:00,60.0,53.0,-100.00,WNW,303,12.0,25.0,77,0.00,,,0.41,419.000000,,2013-09-12 14:52:00,
2013-09-12 11:02:00,60.0,53.0,-100.00,WNW,303,12.0,25.0,77,0.00,,,0.41,419.000000,,2013-09-12 15:02:00,
2013-09-12 11:11:00,60.0,53.0,-100.00,WNW,303,12.0,25.0,77,0.00,,,0.41,419.000000,,2013-09-12 15:11:00,
2013-09-12 11:44:00,60.0,51.0,-100.00,NW,306,13.0,25.0,72,0.00,,,0.41,500.000000,,2013-09-12 15:44:00,
2013-09-12 11:54:00,60.0,51.0,-100.00,NW,306,13.0,25.0,72,0.00,,,0.41,500.000000,,2013-09-12 15:54:00,
2013-09-12 12:03:00,60.0,51.0,-100.00,NW,306,13.0,25.0,72,0.00,,,0.41,500.000000,,2013-09-12 16:03:00,
2013-09-12 12:13:00,60.0,51.0,-100.00,NW,306,13.0,25.0,72,0.00,,,0.41,500.000000,,2013-09-12 16:13:00,
2013-09-12 12:43:00,57.0,50.0,-100.00,NW,305,14.0,23.0,77,0.00,,,0.41,362.000000,,2013-09-12 16:43:00,
2013-09-12 12:53:00,57.0,50.0,-100.00,NW,305,14.0,23.0,77,0.00,,,0.41,362.000000,,2013-09-12 16:53:00,
2013-09-12 13:03:00,57.0,50.0,-100.00,NW,305,14.0,23.0,77,0.00,,,0.41,362.000000,,2013-09-12 17:03:00,
2013-09-12 13:12:00,57.0,50.0,-100.00,NW,305,14.0,23.0,77,0.00,,,0.41,362.000000,,2013-09-12 17:12:00,
2013-09-12 13:43:00,57.0,53.0,-100.00,NW,307,13.0,24.0,85,0.00,,,0.41,491.000000,,2013-09-12 17:43:00,
2013-09-12 13:54:00,57.0,53.0,-100.00,NW,307,13.0,24.0,85,0.00,,,0.41,491.000000,,2013-09-12 17:54:00,
2013-09-12 14:02:00,57.0,53.0,-100.00,NW,307,13.0,24.0,85,0.00,,,0.41,491.000000,,2013-09-12 18:02:00,
2013-09-12 14:12:00,57.0,53.0,-100.00,NW,307,13.0,24.0,85,0.00,,,0.41,491.000000,,2013-09-12 18:12:00,
2013-09-12 14:42:00,58.0,49.0,-100.00,NW,309,14.0,25.0,72,0.00,,,-99.99,551.000000,,2013-09-12 18:42:00,
2013-09-12 14:52:00,58.0,49.0,-100.00,NW,309,14.0,25.0,72,0.00,,,-99.99,551.000000,,2013-09-12 18:52:00,
2013-09-12 15:02:00,58.0,49.0,-100.00,NW,309,14.0,25.0,72,0.00,,,-99.99,551.000000,,2013-09-12 19:02:00,
2013-09-12 15:12:00,58.0,49.0,-100.00,NW,309,14.0,25.0,72,0.00,,,-99.99,551.000000,,2013-09-12 19:12:00,
2013-09-12 15:42:00,57.0,47.0,-100.00,NW,318,13.0,23.0,70,0.00,,,0.41,438.000000,,2013-09-12 19:42:00,
2013-09-12 15:52:00,57.0,47.0,-100.00,NW,318,13.0,23.0,70,0.00,,,0.41,438.000000,,2013-09-12 19:52:00,
2013-09-12 16:02:00,57.0,47.0,-100.00,NW,318,13.0,23.0,70,0.00,,,0.41,438.000000,,2013-09-12 20:02:00,
2013-09-12 16:12:00,57.0,47.0,-100.00,NW,318,13.0,23.0,70,0.00,,,0.41,438.000000,,2013-09-12 20:12:00,
2013-09-12 16:42:00,59.0,48.0,-100.00,NW,309,12.0,23.0,68,0.00,,,0.41,398.000000,,2013-09-12 20:42:00,
2013-09-12 16:52:00,59.0,48.0,-100.00,NW,309,12.0,23.0,68,0.00,,,0.41,398.000000,,2013-09-12 20:52:00,
2013-09-12 17:02:00,59.0,48.0,-100.00,NW,309,12.0,23.0,68,0.00,,,0.41,398.000000,,2013-09-12 21:02:00,
2013-09-12 17:11:00,59.0,48.0,-100.00,NW,309,12.0,23.0,68,0.00,,,0.41,398.000000,,2013-09-12 21:11:00,
2013-09-12 17:43:00,56.0,46.0,-100.00,NW,316,11.0,24.0,68,0.00,,,0.41,345.000000,,2013-09-12 21:43:00,
2013-09-12 17:54:00,56.0,46.0,-100.00,NW,316,11.0,24.0,68,0.00,,,0.41,345.000000,,2013-09-12 21:54:00,
2013-09-12 18:04:00,56.0,46.0,-100.00,NW,316,11.0,24.0,68,0.00,,,0.41,345.000000,,2013-09-12 22:04:00,
2013-09-12 18:13:00,56.0,46.0,-100.00,NW,316,11.0,24.0,68,0.00,,,0.41,345.000000,,2013-09-12 22:13:00,
2013-09-12 18:43:00,54.0,46.0,-100.00,NW,312,11.0,23.0,74,0.00,,,0.41,130.000000,,2013-09-12 22:43:00,
2013-09-12 18:54:00,54.0,46.0,-100.00,NW,312,11.0,23.0,74,0.00,,,0.41,130.000000,,2013-09-12 22:54:00,
2013-09-12 19:04:00,54.0,46.0,-100.00,NW,312,11.0,23.0,74,0.00,,,0.41,130.000000,,2013-09-12 23:04:00,
2013-09-12 19:12:00,54.0,46.0,-100.00,NW,312,11.0,23.0,74,0.00,,,0.41,130.000000,,2013-09-12 23:12:00,
2013-09-12 19:43:00,53.0,45.0,-100.00,NW,315,10.0,19.0,75,0.00,,,0.41,55.000000,,2013-09-12 23:43:00,
2013-09-12 19:53:00,53.0,45.0,-100.00,NW,315,10.0,19.0,75,0.00,,,0.41,55.000000,,2013-09-12 23:53:00,
2013-09-12 20:01:00,53.0,45.0,-100.00,NW,315,10.0,19.0,75,0.00,,,0.41,55.000000,,2013-09-13 00:01:00,
2013-09-12 20:12:00,53.0,45.0,-100.00,NW,315,10.0,19.0,75,0.00,,,0.41,55.000000,,2013-09-13 00:12:00,
2013-09-12 20:42:00,51.0,48.0,-100.00,WNW,293,7.0,16.0,88,0.00,,,0.41,7.000000,,2013-09-13 00:42:00,
2013-09-12 20:52:00,51.0,48.0,-100.00,WNW,293,7.0,16.0,88,0.00,,,0.41,7.000000,,2013-09-13 00:52:00,
2013-09-12 21:02:00,51.0,48.0,-100.00,WNW,293,7.0,16.0,88,0.00,,,0.41,7.000000,,2013-09-13 01:02:00,
2013-09-12 21:11:00,51.0,48.0,-100.00,WNW,293,7.0,16.0,88,0.00,,,0.41,7.000000,,2013-09-13 01:11:00,
2013-09-12 21:42:00,52.0,45.0,-100.00,North,356,6.0,14.0,78,0.00,,,0.40,0.000000,,2013-09-13 01:42:00,
2013-09-12 21:53:00,52.0,45.0,-100.00,North,356,6.0,14.0,78,0.00,,,0.40,0.000000,,2013-09-13 01:53:00,
2013-09-12 22:02:00,52.0,45.0,-100.00,North,356,6.0,14.0,78,0.00,,,0.40,0.000000,,2013-09-13 02:02:00,
2013-09-12 22:12:00,52.0,45.0,-100.00,North,356,6.0,14.0,78,0.00,,,0.40,0.000000,,2013-09-13 02:12:00,
2013-09-12 22:43:00,51.0,44.0,-100.00,North,5,8.0,16.0,76,0.00,,,0.02,0.000000,,2013-09-13 02:43:00,
2013-09-12 22:53:00,51.0,44.0,-100.00,North,5,8.0,16.0,76,0.00,,,0.02,0.000000,,2013-09-13 02:53:00,
2013-09-12 23:02:00,51.0,44.0,-100.00,North,5,8.0,16.0,76,0.00,,,0.02,0.000000,,2013-09-13 03:02:00,
2013-09-12 23:12:00,51.0,44.0,-100.00,North,5,8.0,16.0,76,0.00,,,0.02,0.000000,,2013-09-13 03:12:00,
2013-09-12 23:14:00,49.0,42.0,-100.00,North,11,9.0,15.0,77,0.00,,,0.02,0.000000,,2013-09-13 03:14:00,
2013-09-12 23:45:00,49.0,42.0,-100.00,North,11,9.0,15.0,77,0.00,,,0.02,0.000000,,2013-09-13 03:45:00,
2013-09-12 23:55:00,49.0,42.0,-100.00,North,11,9.0,15.0,77,0.00,,,0.02,0.000000,,2013-09-13 03:55:00,